createdAt,value
2023-03-23T15:59:42.945Z,25.34
2023-03-23T16:02:16.397Z,25.44
2023-03-23T16:04:44.791Z,25.39
2023-03-23T16:07:14.183Z,25.44
2023-03-23T16:09:44.630Z,25.47
2023-03-23T16:12:13.405Z,25.52
2023-03-23T16:14:40.961Z,25.49
2023-03-23T16:17:11.032Z,25.43
2023-03-23T16:19:38.255Z,25.43
2023-03-23T16:22:04.918Z,25.37
2023-03-23T16:24:31.494Z,25.39
2023-03-23T16:26:58.125Z,25.44
2023-03-23T16:29:46.808Z,25.46
2023-03-23T16:32:11.366Z,25.54
2023-03-23T16:34:38.852Z,25.61
2023-03-23T16:37:06.803Z,25.64
2023-03-23T16:39:33.780Z,25.57
2023-03-23T16:42:00.374Z,25.51
2023-03-23T16:44:27.074Z,25.51
2023-03-23T16:46:53.647Z,25.48
2023-03-23T16:49:20.253Z,25.43
2023-03-23T16:51:48.137Z,25.42
2023-03-23T16:54:14.745Z,25.39
2023-03-23T16:56:41.439Z,25.42
2023-03-23T16:59:08.098Z,25.45
2023-03-23T17:01:34.769Z,25.60
2023-03-23T17:04:01.417Z,25.52
2023-03-23T17:06:28.013Z,25.58
2023-03-23T17:08:54.616Z,25.63
2023-03-23T17:11:21.222Z,25.59
2023-03-23T17:13:48.294Z,25.56
2023-03-23T17:16:14.935Z,25.59
2023-03-23T17:18:41.666Z,25.56
2023-03-23T17:21:08.268Z,25.50
2023-03-23T17:23:35.124Z,25.49
2023-03-23T17:26:01.870Z,25.35
2023-03-23T17:28:28.535Z,25.55
2023-03-23T17:30:55.196Z,25.55
2023-03-23T17:33:22.021Z,25.57
2023-03-23T17:35:51.818Z,25.56
2023-03-23T17:38:18.651Z,25.59
2023-03-23T17:40:48.033Z,25.56
2023-03-23T17:43:14.696Z,25.65
2023-03-23T17:45:41.611Z,25.60
2023-03-23T17:48:11.877Z,25.56
2023-03-23T17:50:38.570Z,25.57
2023-03-23T17:53:05.433Z,25.53
2023-03-23T17:55:32.111Z,25.62
2023-03-23T17:57:58.766Z,25.68
2023-03-23T18:00:25.578Z,25.73
2023-03-23T18:02:52.314Z,25.73
2023-03-23T18:05:22.087Z,25.72
2023-03-23T18:07:48.743Z,25.70
2023-03-23T18:10:15.910Z,25.64
2023-03-23T18:12:42.720Z,25.61
2023-03-23T18:15:09.920Z,25.53
2023-03-23T18:17:36.616Z,25.50
2023-03-23T18:20:04.302Z,25.49
2023-03-23T18:22:34.067Z,25.39
2023-03-23T18:25:02.698Z,25.47
2023-03-23T18:27:29.309Z,25.46
2023-03-23T18:29:56.139Z,25.39
2023-03-23T18:32:22.839Z,25.47
2023-03-23T18:34:50.090Z,25.45
2023-03-23T18:37:16.923Z,25.41
2023-03-23T18:39:43.820Z,25.47
2023-03-23T18:42:10.859Z,25.36
2023-03-23T18:44:37.685Z,25.45
2023-03-23T18:47:04.572Z,25.52
2023-03-23T18:49:33.922Z,25.58
2023-03-23T18:52:01.281Z,25.62
2023-03-23T18:54:28.888Z,25.67
2023-03-23T18:56:55.992Z,25.67
2023-03-23T18:59:36.054Z,25.75
2023-03-23T19:02:04.734Z,25.72
2023-03-23T19:04:36.145Z,25.76
2023-03-23T19:07:03.856Z,25.78
2023-03-23T19:09:30.864Z,25.79
2023-03-23T19:11:59.400Z,25.75
2023-03-23T19:14:28.524Z,25.75
2023-03-23T19:17:08.587Z,25.76
2023-03-23T19:19:43.268Z,25.71
2023-03-23T19:22:12.437Z,25.70
2023-03-23T19:24:39.537Z,25.47
2023-03-23T19:27:09.404Z,25.68
2023-03-23T19:29:36.834Z,25.64
2023-03-23T19:32:06.764Z,25.61
2023-03-23T19:34:39.170Z,25.60
2023-03-23T19:37:10.888Z,25.57
2023-03-23T19:39:38.540Z,25.62
2023-03-23T19:42:06.180Z,25.56
2023-03-23T19:47:01.220Z,25.55
2023-03-23T19:49:28.317Z,25.65
2023-03-23T19:52:08.809Z,25.57
2023-03-23T19:54:41.094Z,25.74
2023-03-23T19:57:11.191Z,25.71
2023-03-23T19:59:38.328Z,25.49
2023-03-23T20:02:06.065Z,25.62
2023-03-23T20:07:47.867Z,25.53
2023-03-23T20:10:17.684Z,25.42
2023-03-23T20:12:44.553Z,25.52
2023-03-23T20:15:11.778Z,25.59
2023-03-23T20:17:38.674Z,25.50
2023-03-23T20:20:10.152Z,25.48
2023-03-23T20:22:37.284Z,25.49
2023-03-23T20:25:04.378Z,25.53
2023-03-23T20:27:31.153Z,25.55
2023-03-23T20:29:58.013Z,25.49
2023-03-23T20:32:24.887Z,25.48
2023-03-23T20:34:51.586Z,25.43
2023-03-23T20:37:20.592Z,25.46
2023-03-23T20:39:48.248Z,25.44
2023-03-23T20:42:15.188Z,25.41
2023-03-23T20:44:42.961Z,25.45
2023-03-23T20:47:09.955Z,25.47
2023-03-23T20:49:37.699Z,25.42
2023-03-23T20:52:05.410Z,25.50
2023-03-23T20:54:32.377Z,25.58
2023-03-23T20:56:59.212Z,25.63
2023-03-23T20:59:25.980Z,25.55
2023-03-23T21:01:52.699Z,25.61
2023-03-23T21:04:20.467Z,25.60
2023-03-23T21:06:53.250Z,25.57
2023-03-23T21:09:20.156Z,25.55
2023-03-23T21:11:46.956Z,25.50
2023-03-23T21:14:13.753Z,25.48
2023-03-23T21:16:41.312Z,25.44
2023-03-23T21:19:08.106Z,25.46
2023-03-23T21:21:34.972Z,25.55
2023-03-23T21:24:05.494Z,25.51
2023-03-23T21:26:32.996Z,25.61
2023-03-23T21:29:00.330Z,25.58
2023-03-23T21:31:30.612Z,25.50
2023-03-23T21:34:00.150Z,25.56
2023-03-23T21:36:28.351Z,25.56
2023-03-23T21:38:55.647Z,25.54
2023-03-23T21:41:22.535Z,25.54
2023-03-23T21:43:50.054Z,25.52
2023-03-23T21:46:19.592Z,25.48
2023-03-23T21:48:51.185Z,25.49
2023-03-23T21:51:24.801Z,25.47
2023-03-23T21:53:54.410Z,25.40
2023-03-23T21:56:22.075Z,25.41
2023-03-23T21:58:48.799Z,25.47
2023-03-23T22:01:16.227Z,25.54
2023-03-23T22:03:42.921Z,25.57
2023-03-23T22:06:18.305Z,25.50
2023-03-23T22:08:45.999Z,25.53
2023-03-23T22:11:15.588Z,25.59
2023-03-23T22:13:42.371Z,25.60
2023-03-23T22:16:11.425Z,25.52
2023-03-23T22:18:42.989Z,25.63
2023-03-23T22:21:09.678Z,25.62
2023-03-23T22:23:36.792Z,25.53
2023-03-23T22:26:04.207Z,25.57
2023-03-23T22:28:31.172Z,25.62
2023-03-23T22:31:06.543Z,25.68
2023-03-23T22:33:33.537Z,25.68
2023-03-23T22:36:06.022Z,25.64
2023-03-23T22:38:34.114Z,25.67
2023-03-23T22:41:04.610Z,25.64
2023-03-23T22:43:31.344Z,25.67
2023-03-23T22:45:58.041Z,25.60
2023-03-23T22:48:25.722Z,25.50
2023-03-23T22:50:52.411Z,25.52
2023-03-23T22:53:19.242Z,25.57
2023-03-23T22:55:48.631Z,25.48
2023-03-23T22:58:15.952Z,25.57
2023-03-23T23:00:47.919Z,25.59
2023-03-23T23:03:15.196Z,25.60
2023-03-23T23:05:48.357Z,25.50
2023-03-23T23:08:17.340Z,25.60
2023-03-23T23:10:45.878Z,25.61
2023-03-23T23:13:13.245Z,25.60
2023-03-23T23:15:41.667Z,25.57
2023-03-23T23:18:08.391Z,25.55
2023-03-23T23:20:35.488Z,25.55
2023-03-23T23:23:02.540Z,25.54
2023-03-23T23:25:29.601Z,25.48
2023-03-23T23:27:58.224Z,25.50
2023-03-23T23:30:25.865Z,25.46
2023-03-23T23:32:52.740Z,25.44
2023-03-23T23:35:20.661Z,25.32
2023-03-23T23:37:47.635Z,25.44
2023-03-23T23:40:17.410Z,25.46
2023-03-23T23:42:45.166Z,25.51
2023-03-23T23:45:11.778Z,25.50
2023-03-23T23:47:38.598Z,25.48
2023-03-23T23:50:07.214Z,25.47
2023-03-23T23:52:34.450Z,25.37
2023-03-23T23:55:01.315Z,25.47
2023-03-23T23:57:27.909Z,25.36
2023-03-23T23:59:54.503Z,25.40
